Antonia, Louisiana
Current Conditions -  °F | °C
As of 1:53 PM on Saturday 20 Dec 2014 (Local Time) from KESF Reporting Station
Few Clouds Few Clouds  
Wind Chill: 57°   Ceiling: Unl
Heat Index: 57°   Visibility: 10mi
Dew Point: 44°   Wind: 7mph
Humidity: 62%   Direction: NA
Pressure: 30.15"   Gusts: NA
Location:  31.538°N, 92.3799°W
Report Text: KESF 201953Z AUTO VRB06KT 10SM FEW026 14/07 A3015 RMK AO2 SLP209 T01390067
Loading
Personal Weather Stations






























Interactive Weather Map New forecast layout! Learn more

10-Day Weather Forecast

Advertisements
Track Severe Weather on mobile